sensor_id;sensor_type;location;lat;lon;timestamp;P1;durP1;ratioP1;P2;durP2;ratioP2
68076;SDS011;54866;53.458;14.540;2022-08-25T00:00:17;19.80;;;13.50;;
68076;SDS011;54866;53.458;14.540;2022-08-25T00:02:47;16.40;;;12.30;;
68076;SDS011;54866;53.458;14.540;2022-08-25T00:05:17;16.60;;;13.50;;
68076;SDS011;54866;53.458;14.540;2022-08-25T00:07:47;13.20;;;10.70;;
68076;SDS011;54866;53.458;14.540;2022-08-25T00:10:17;15.10;;;12.70;;
68076;SDS011;54866;53.458;14.540;2022-08-25T00:12:49;14.90;;;12.40;;
68076;SDS011;54866;53.458;14.540;2022-08-25T00:15:21;17.60;;;12.80;;
68076;SDS011;54866;53.458;14.540;2022-08-25T00:17:51;14.80;;;12.50;;
68076;SDS011;54866;53.458;14.540;2022-08-25T00:20:21;16.70;;;13.00;;
68076;SDS011;54866;53.458;14.540;2022-08-25T00:22:52;16.80;;;12.70;;
68076;SDS011;54866;53.458;14.540;2022-08-25T00:25:25;15.60;;;13.30;;
68076;SDS011;54866;53.458;14.540;2022-08-25T00:27:55;17.00;;;13.80;;
68076;SDS011;54866;53.458;14.540;2022-08-25T00:30:26;15.90;;;12.40;;
68076;SDS011;54866;53.458;14.540;2022-08-25T00:32:58;18.50;;;12.90;;
68076;SDS011;54866;53.458;14.540;2022-08-25T00:35:28;15.00;;;12.80;;
68076;SDS011;54866;53.458;14.540;2022-08-25T00:37:58;16.50;;;12.50;;
68076;SDS011;54866;53.458;14.540;2022-08-25T00:40:28;16.50;;;13.70;;
68076;SDS011;54866;53.458;14.540;2022-08-25T00:42:58;19.90;;;14.10;;
68076;SDS011;54866;53.458;14.540;2022-08-25T00:45:28;20.10;;;14.60;;
68076;SDS011;54866;53.458;14.540;2022-08-25T00:47:58;17.00;;;13.40;;
68076;SDS011;54866;53.458;14.540;2022-08-25T00:50:29;17.60;;;14.40;;
68076;SDS011;54866;53.458;14.540;2022-08-25T00:53:02;16.60;;;13.90;;
68076;SDS011;54866;53.458;14.540;2022-08-25T00:55:36;20.20;;;14.70;;
68076;SDS011;54866;53.458;14.540;2022-08-25T00:58:09;18.40;;;14.40;;
68076;SDS011;54866;53.458;14.540;2022-08-25T01:00:44;18.10;;;14.40;;
68076;SDS011;54866;53.458;14.540;2022-08-25T01:03:16;20.30;;;15.70;;
68076;SDS011;54866;53.458;14.540;2022-08-25T01:05:47;21.30;;;14.40;;
68076;SDS011;54866;53.458;14.540;2022-08-25T01:08:18;19.90;;;14.50;;
68076;SDS011;54866;53.458;14.540;2022-08-25T01:10:53;20.20;;;14.00;;
68076;SDS011;54866;53.458;14.540;2022-08-25T01:13:27;19.60;;;15.20;;
68076;SDS011;54866;53.458;14.540;2022-08-25T01:16:03;20.00;;;15.20;;
68076;SDS011;54866;53.458;14.540;2022-08-25T01:18:42;17.60;;;14.70;;
68076;SDS011;54866;53.458;14.540;2022-08-25T01:21:17;18.30;;;14.10;;
68076;SDS011;54866;53.458;14.540;2022-08-25T01:23:51;15.70;;;13.10;;
68076;SDS011;54866;53.458;14.540;2022-08-25T01:26:26;15.70;;;13.50;;
68076;SDS011;54866;53.458;14.540;2022-08-25T01:28:58;17.70;;;13.70;;
68076;SDS011;54866;53.458;14.540;2022-08-25T01:31:48;14.80;;;12.70;;
68076;SDS011;54866;53.458;14.540;2022-08-25T01:34:22;16.90;;;13.70;;
68076;SDS011;54866;53.458;14.540;2022-08-25T01:36:54;20.50;;;13.90;;
68076;SDS011;54866;53.458;14.540;2022-08-25T01:39:25;17.30;;;13.90;;
68076;SDS011;54866;53.458;14.540;2022-08-25T01:42:03;21.60;;;14.30;;
68076;SDS011;54866;53.458;14.540;2022-08-25T01:44:41;18.50;;;14.40;;
68076;SDS011;54866;53.458;14.540;2022-08-25T01:47:12;23.20;;;14.70;;
68076;SDS011;54866;53.458;14.540;2022-08-25T01:49:43;22.40;;;15.10;;
68076;SDS011;54866;53.458;14.540;2022-08-25T01:52:16;19.50;;;14.70;;
68076;SDS011;54866;53.458;14.540;2022-08-25T01:54:52;19.20;;;14.00;;
68076;SDS011;54866;53.458;14.540;2022-08-25T01:57:22;20.30;;;15.50;;
68076;SDS011;54866;53.458;14.540;2022-08-25T01:59:52;19.20;;;13.80;;
68076;SDS011;54866;53.458;14.540;2022-08-25T02:02:23;18.20;;;14.10;;
68076;SDS011;54866;53.458;14.540;2022-08-25T02:04:53;16.40;;;12.90;;
68076;SDS011;54866;53.458;14.540;2022-08-25T02:07:26;15.10;;;12.80;;
68076;SDS011;54866;53.458;14.540;2022-08-25T02:09:58;18.00;;;12.90;;
68076;SDS011;54866;53.458;14.540;2022-08-25T02:12:32;14.40;;;11.30;;
68076;SDS011;54866;53.458;14.540;2022-08-25T02:15:07;14.60;;;11.50;;
68076;SDS011;54866;53.458;14.540;2022-08-25T02:17:41;15.10;;;12.50;;
68076;SDS011;54866;53.458;14.540;2022-08-25T02:20:13;17.10;;;12.40;;
68076;SDS011;54866;53.458;14.540;2022-08-25T02:22:43;15.70;;;12.80;;
68076;SDS011;54866;53.458;14.540;2022-08-25T02:25:13;13.40;;;11.60;;
68076;SDS011;54866;53.458;14.540;2022-08-25T02:27:48;16.10;;;12.10;;
68076;SDS011;54866;53.458;14.540;2022-08-25T02:30:18;15.40;;;12.80;;
68076;SDS011;54866;53.458;14.540;2022-08-25T02:32:47;14.10;;;12.40;;
68076;SDS011;54866;53.458;14.540;2022-08-25T02:35:17;13.80;;;10.90;;
68076;SDS011;54866;53.458;14.540;2022-08-25T02:37:48;15.90;;;12.00;;
68076;SDS011;54866;53.458;14.540;2022-08-25T02:40:19;13.80;;;11.50;;
68076;SDS011;54866;53.458;14.540;2022-08-25T02:42:49;14.00;;;10.60;;
68076;SDS011;54866;53.458;14.540;2022-08-25T02:45:19;14.30;;;11.90;;
68076;SDS011;54866;53.458;14.540;2022-08-25T02:47:49;15.50;;;12.70;;
68076;SDS011;54866;53.458;14.540;2022-08-25T02:50:19;16.00;;;12.40;;
68076;SDS011;54866;53.458;14.540;2022-08-25T02:52:49;15.70;;;12.10;;
68076;SDS011;54866;53.458;14.540;2022-08-25T02:55:19;15.50;;;13.20;;
68076;SDS011;54866;53.458;14.540;2022-08-25T02:57:49;15.80;;;11.20;;
68076;SDS011;54866;53.458;14.540;2022-08-25T03:00:19;13.70;;;12.00;;
68076;SDS011;54866;53.458;14.540;2022-08-25T03:02:49;17.00;;;11.80;;
68076;SDS011;54866;53.458;14.540;2022-08-25T03:05:19;14.30;;;12.00;;
68076;SDS011;54866;53.458;14.540;2022-08-25T03:07:49;13.70;;;11.40;;
68076;SDS011;54866;53.458;14.540;2022-08-25T03:10:19;15.80;;;13.00;;
68076;SDS011;54866;53.458;14.540;2022-08-25T03:12:49;15.60;;;11.60;;
68076;SDS011;54866;53.458;14.540;2022-08-25T03:15:19;16.40;;;11.90;;
68076;SDS011;54866;53.458;14.540;2022-08-25T03:17:51;17.40;;;12.10;;
68076;SDS011;54866;53.458;14.540;2022-08-25T03:20:22;14.30;;;12.50;;
68076;SDS011;54866;53.458;14.540;2022-08-25T03:22:53;13.10;;;10.90;;
68076;SDS011;54866;53.458;14.540;2022-08-25T03:25:23;18.70;;;12.20;;
68076;SDS011;54866;53.458;14.540;2022-08-25T03:28:10;14.60;;;12.20;;
68076;SDS011;54866;53.458;14.540;2022-08-25T03:30:41;14.40;;;11.30;;
68076;SDS011;54866;53.458;14.540;2022-08-25T03:33:12;17.00;;;12.30;;
68076;SDS011;54866;53.458;14.540;2022-08-25T03:35:45;16.00;;;12.20;;
68076;SDS011;54866;53.458;14.540;2022-08-25T03:38:15;17.60;;;11.70;;
68076;SDS011;54866;53.458;14.540;2022-08-25T03:40:44;15.70;;;11.70;;
68076;SDS011;54866;53.458;14.540;2022-08-25T03:43:14;13.90;;;12.10;;
68076;SDS011;54866;53.458;14.540;2022-08-25T03:45:44;15.80;;;12.00;;
68076;SDS011;54866;53.458;14.540;2022-08-25T03:48:15;13.80;;;11.30;;
68076;SDS011;54866;53.458;14.540;2022-08-25T03:50:46;13.50;;;12.00;;
68076;SDS011;54866;53.458;14.540;2022-08-25T03:53:18;15.40;;;11.80;;
68076;SDS011;54866;53.458;14.540;2022-08-25T03:55:48;15.90;;;12.30;;
68076;SDS011;54866;53.458;14.540;2022-08-25T03:58:17;14.50;;;11.70;;
68076;SDS011;54866;53.458;14.540;2022-08-25T04:00:47;15.90;;;11.30;;
68076;SDS011;54866;53.458;14.540;2022-08-25T04:03:17;16.10;;;12.30;;
68076;SDS011;54866;53.458;14.540;2022-08-25T04:05:47;14.80;;;11.60;;
68076;SDS011;54866;53.458;14.540;2022-08-25T04:08:17;16.70;;;14.10;;
68076;SDS011;54866;53.458;14.540;2022-08-25T04:10:48;17.30;;;12.80;;
68076;SDS011;54866;53.458;14.540;2022-08-25T04:13:17;14.60;;;10.90;;
68076;SDS011;54866;53.458;14.540;2022-08-25T04:15:48;14.40;;;11.30;;
68076;SDS011;54866;53.458;14.540;2022-08-25T04:18:18;13.00;;;9.70;;
68076;SDS011;54866;53.458;14.540;2022-08-25T04:20:47;14.60;;;11.60;;
68076;SDS011;54866;53.458;14.540;2022-08-25T04:23:17;15.90;;;12.20;;
68076;SDS011;54866;53.458;14.540;2022-08-25T04:25:47;14.50;;;11.80;;
68076;SDS011;54866;53.458;14.540;2022-08-25T04:28:17;14.40;;;11.80;;
68076;SDS011;54866;53.458;14.540;2022-08-25T04:30:47;13.40;;;11.60;;
68076;SDS011;54866;53.458;14.540;2022-08-25T04:33:17;16.80;;;11.60;;
68076;SDS011;54866;53.458;14.540;2022-08-25T04:35:48;16.70;;;13.90;;
68076;SDS011;54866;53.458;14.540;2022-08-25T04:38:18;17.00;;;13.40;;
68076;SDS011;54866;53.458;14.540;2022-08-25T04:40:55;17.10;;;13.10;;
68076;SDS011;54866;53.458;14.540;2022-08-25T04:43:25;17.60;;;12.20;;
68076;SDS011;54866;53.458;14.540;2022-08-25T04:45:57;14.10;;;11.60;;
68076;SDS011;54866;53.458;14.540;2022-08-25T04:48:28;15.00;;;12.20;;
68076;SDS011;54866;53.458;14.540;2022-08-25T04:51:02;14.90;;;11.10;;
68076;SDS011;54866;53.458;14.540;2022-08-25T04:53:33;18.00;;;14.90;;
68076;SDS011;54866;53.458;14.540;2022-08-25T04:56:06;18.00;;;13.10;;
68076;SDS011;54866;53.458;14.540;2022-08-25T04:58:37;16.80;;;12.70;;
68076;SDS011;54866;53.458;14.540;2022-08-25T05:01:08;15.90;;;12.20;;
68076;SDS011;54866;53.458;14.540;2022-08-25T05:03:41;19.50;;;13.50;;
68076;SDS011;54866;53.458;14.540;2022-08-25T05:06:12;17.80;;;13.30;;
68076;SDS011;54866;53.458;14.540;2022-08-25T05:08:42;18.10;;;12.90;;
68076;SDS011;54866;53.458;14.540;2022-08-25T05:11:13;16.70;;;14.50;;
68076;SDS011;54866;53.458;14.540;2022-08-25T05:13:45;19.90;;;13.80;;
68076;SDS011;54866;53.458;14.540;2022-08-25T05:16:17;17.90;;;12.50;;
68076;SDS011;54866;53.458;14.540;2022-08-25T05:18:48;17.40;;;12.60;;
68076;SDS011;54866;53.458;14.540;2022-08-25T05:21:19;17.90;;;13.10;;
68076;SDS011;54866;53.458;14.540;2022-08-25T05:23:52;16.00;;;12.00;;
68076;SDS011;54866;53.458;14.540;2022-08-25T05:26:24;18.60;;;13.60;;
68076;SDS011;54866;53.458;14.540;2022-08-25T05:28:57;17.40;;;13.20;;
68076;SDS011;54866;53.458;14.540;2022-08-25T05:31:30;16.60;;;13.00;;
68076;SDS011;54866;53.458;14.540;2022-08-25T05:34:02;19.60;;;15.60;;
68076;SDS011;54866;53.458;14.540;2022-08-25T05:36:34;18.70;;;14.20;;
68076;SDS011;54866;53.458;14.540;2022-08-25T05:39:08;16.80;;;12.50;;
68076;SDS011;54866;53.458;14.540;2022-08-25T05:41:38;13.70;;;11.90;;
68076;SDS011;54866;53.458;14.540;2022-08-25T05:44:09;17.50;;;13.20;;
68076;SDS011;54866;53.458;14.540;2022-08-25T05:46:39;14.50;;;12.20;;
68076;SDS011;54866;53.458;14.540;2022-08-25T05:49:09;14.00;;;12.60;;
68076;SDS011;54866;53.458;14.540;2022-08-25T05:51:38;14.10;;;11.90;;
68076;SDS011;54866;53.458;14.540;2022-08-25T05:54:08;14.90;;;12.20;;
68076;SDS011;54866;53.458;14.540;2022-08-25T05:56:38;14.60;;;11.60;;
68076;SDS011;54866;53.458;14.540;2022-08-25T05:59:08;15.60;;;12.10;;
68076;SDS011;54866;53.458;14.540;2022-08-25T06:01:39;12.20;;;11.00;;
68076;SDS011;54866;53.458;14.540;2022-08-25T06:04:26;15.90;;;12.00;;
68076;SDS011;54866;53.458;14.540;2022-08-25T06:06:56;16.00;;;12.40;;
68076;SDS011;54866;53.458;14.540;2022-08-25T06:09:25;14.00;;;11.00;;
68076;SDS011;54866;53.458;14.540;2022-08-25T06:11:55;13.70;;;11.20;;
68076;SDS011;54866;53.458;14.540;2022-08-25T06:14:27;12.30;;;10.70;;
68076;SDS011;54866;53.458;14.540;2022-08-25T06:16:57;14.00;;;11.30;;
68076;SDS011;54866;53.458;14.540;2022-08-25T06:19:27;14.30;;;10.90;;
68076;SDS011;54866;53.458;14.540;2022-08-25T06:21:56;15.80;;;11.50;;
68076;SDS011;54866;53.458;14.540;2022-08-25T06:24:28;15.50;;;9.80;;
68076;SDS011;54866;53.458;14.540;2022-08-25T06:26:58;14.10;;;11.00;;
68076;SDS011;54866;53.458;14.540;2022-08-25T06:29:28;12.90;;;9.70;;
68076;SDS011;54866;53.458;14.540;2022-08-25T06:31:58;14.30;;;9.50;;
68076;SDS011;54866;53.458;14.540;2022-08-25T06:34:28;16.70;;;11.10;;
68076;SDS011;54866;53.458;14.540;2022-08-25T06:36:58;11.60;;;10.40;;
68076;SDS011;54866;53.458;14.540;2022-08-25T06:39:28;11.20;;;9.30;;
68076;SDS011;54866;53.458;14.540;2022-08-25T06:41:59;15.00;;;9.60;;
68076;SDS011;54866;53.458;14.540;2022-08-25T06:44:29;13.50;;;10.00;;
68076;SDS011;54866;53.458;14.540;2022-08-25T06:46:59;12.60;;;10.60;;
68076;SDS011;54866;53.458;14.540;2022-08-25T06:49:29;15.50;;;10.50;;
68076;SDS011;54866;53.458;14.540;2022-08-25T06:51:59;12.60;;;9.80;;
68076;SDS011;54866;53.458;14.540;2022-08-25T06:54:30;13.50;;;9.50;;
68076;SDS011;54866;53.458;14.540;2022-08-25T06:57:01;10.80;;;8.90;;
68076;SDS011;54866;53.458;14.540;2022-08-25T06:59:32;11.40;;;9.70;;
68076;SDS011;54866;53.458;14.540;2022-08-25T07:02:03;10.20;;;8.10;;
68076;SDS011;54866;53.458;14.540;2022-08-25T07:04:35;14.00;;;9.20;;
68076;SDS011;54866;53.458;14.540;2022-08-25T07:07:05;9.70;;;8.60;;
68076;SDS011;54866;53.458;14.540;2022-08-25T07:09:35;14.00;;;9.80;;
68076;SDS011;54866;53.458;14.540;2022-08-25T07:12:05;14.80;;;8.50;;
68076;SDS011;54866;53.458;14.540;2022-08-25T07:14:35;10.80;;;8.70;;
68076;SDS011;54866;53.458;14.540;2022-08-25T07:17:05;11.20;;;8.80;;
68076;SDS011;54866;53.458;14.540;2022-08-25T07:19:35;12.40;;;8.70;;
68076;SDS011;54866;53.458;14.540;2022-08-25T07:22:05;9.10;;;7.60;;
68076;SDS011;54866;53.458;14.540;2022-08-25T07:24:35;10.20;;;8.50;;
68076;SDS011;54866;53.458;14.540;2022-08-25T07:27:05;11.90;;;7.50;;
68076;SDS011;54866;53.458;14.540;2022-08-25T07:29:35;11.50;;;8.40;;
68076;SDS011;54866;53.458;14.540;2022-08-25T07:32:05;12.00;;;8.60;;
68076;SDS011;54866;53.458;14.540;2022-08-25T07:34:35;12.90;;;8.60;;
68076;SDS011;54866;53.458;14.540;2022-08-25T07:37:25;11.90;;;8.70;;
68076;SDS011;54866;53.458;14.540;2022-08-25T07:39:55;10.70;;;7.90;;
68076;SDS011;54866;53.458;14.540;2022-08-25T07:42:28;10.60;;;8.70;;
68076;SDS011;54866;53.458;14.540;2022-08-25T07:44:59;8.60;;;7.70;;
68076;SDS011;54866;53.458;14.540;2022-08-25T07:47:31;8.80;;;6.70;;
68076;SDS011;54866;53.458;14.540;2022-08-25T07:50:01;9.60;;;6.20;;
68076;SDS011;54866;53.458;14.540;2022-08-25T07:52:31;7.20;;;6.20;;
68076;SDS011;54866;53.458;14.540;2022-08-25T07:55:02;8.40;;;6.40;;
68076;SDS011;54866;53.458;14.540;2022-08-25T07:57:33;8.80;;;6.10;;
68076;SDS011;54866;53.458;14.540;2022-08-25T08:02:35;7.50;;;6.40;;
68076;SDS011;54866;53.458;14.540;2022-08-25T08:05:08;9.10;;;6.30;;
68076;SDS011;54866;53.458;14.540;2022-08-25T08:07:39;8.30;;;5.40;;
68076;SDS011;54866;53.458;14.540;2022-08-25T08:10:10;7.90;;;5.10;;
68076;SDS011;54866;53.458;14.540;2022-08-25T08:12:41;8.50;;;5.20;;
68076;SDS011;54866;53.458;14.540;2022-08-25T08:15:11;6.80;;;5.30;;
68076;SDS011;54866;53.458;14.540;2022-08-25T08:17:41;6.90;;;5.00;;
68076;SDS011;54866;53.458;14.540;2022-08-25T08:20:11;7.30;;;4.90;;
68076;SDS011;54866;53.458;14.540;2022-08-25T08:22:43;6.30;;;4.40;;
68076;SDS011;54866;53.458;14.540;2022-08-25T08:25:18;8.30;;;5.30;;
68076;SDS011;54866;53.458;14.540;2022-08-25T08:28:04;7.30;;;4.70;;
68076;SDS011;54866;53.458;14.540;2022-08-25T08:30:33;8.90;;;4.60;;
68076;SDS011;54866;53.458;14.540;2022-08-25T08:33:03;5.80;;;4.10;;
68076;SDS011;54866;53.458;14.540;2022-08-25T08:35:33;9.80;;;4.30;;
68076;SDS011;54866;53.458;14.540;2022-08-25T08:38:03;9.10;;;4.30;;
68076;SDS011;54866;53.458;14.540;2022-08-25T08:40:33;5.90;;;4.00;;
68076;SDS011;54866;53.458;14.540;2022-08-25T08:43:33;6.60;;;4.00;;
68076;SDS011;54866;53.458;14.540;2022-08-25T08:46:04;6.80;;;4.30;;
68076;SDS011;54866;53.458;14.540;2022-08-25T08:51:26;5.30;;;3.80;;
68076;SDS011;54866;53.458;14.540;2022-08-25T08:54:19;4.70;;;3.40;;
68076;SDS011;54866;53.458;14.540;2022-08-25T08:56:54;4.50;;;4.10;;
68076;SDS011;54866;53.458;14.540;2022-08-25T08:59:46;6.20;;;4.50;;
68076;SDS011;54866;53.458;14.540;2022-08-25T09:02:20;7.00;;;4.20;;
68076;SDS011;54866;53.458;14.540;2022-08-25T09:05:08;7.70;;;4.10;;
68076;SDS011;54866;53.458;14.540;2022-08-25T09:07:44;6.50;;;3.80;;
68076;SDS011;54866;53.458;14.540;2022-08-25T09:10:16;5.90;;;4.20;;
68076;SDS011;54866;53.458;14.540;2022-08-25T09:13:15;6.10;;;4.40;;
68076;SDS011;54866;53.458;14.540;2022-08-25T09:15:56;9.30;;;4.50;;
68076;SDS011;54866;53.458;14.540;2022-08-25T09:18:50;7.70;;;4.90;;
68076;SDS011;54866;53.458;14.540;2022-08-25T09:21:42;6.70;;;4.50;;
68076;SDS011;54866;53.458;14.540;2022-08-25T09:24:22;5.90;;;4.60;;
68076;SDS011;54866;53.458;14.540;2022-08-25T09:27:10;6.10;;;4.50;;
68076;SDS011;54866;53.458;14.540;2022-08-25T09:29:58;7.90;;;4.20;;
68076;SDS011;54866;53.458;14.540;2022-08-25T09:32:31;5.30;;;4.20;;
68076;SDS011;54866;53.458;14.540;2022-08-25T09:35:14;9.10;;;3.80;;
68076;SDS011;54866;53.458;14.540;2022-08-25T09:38:14;8.30;;;4.30;;
68076;SDS011;54866;53.458;14.540;2022-08-25T09:40:47;6.30;;;4.20;;
68076;SDS011;54866;53.458;14.540;2022-08-25T09:43:19;7.70;;;3.80;;
68076;SDS011;54866;53.458;14.540;2022-08-25T09:46:12;5.90;;;4.20;;
68076;SDS011;54866;53.458;14.540;2022-08-25T09:48:44;6.10;;;4.40;;
68076;SDS011;54866;53.458;14.540;2022-08-25T09:51:18;7.10;;;4.60;;
68076;SDS011;54866;53.458;14.540;2022-08-25T09:53:54;5.60;;;4.00;;
68076;SDS011;54866;53.458;14.540;2022-08-25T09:56:27;6.30;;;4.00;;
68076;SDS011;54866;53.458;14.540;2022-08-25T09:59:17;6.30;;;4.00;;
68076;SDS011;54866;53.458;14.540;2022-08-25T10:01:49;8.80;;;4.50;;
68076;SDS011;54866;53.458;14.540;2022-08-25T10:06:53;7.50;;;4.30;;
68076;SDS011;54866;53.458;14.540;2022-08-25T10:09:24;5.60;;;4.20;;
68076;SDS011;54866;53.458;14.540;2022-08-25T10:11:58;8.20;;;4.60;;
68076;SDS011;54866;53.458;14.540;2022-08-25T10:14:33;8.00;;;4.50;;
68076;SDS011;54866;53.458;14.540;2022-08-25T10:17:14;8.50;;;4.20;;
68076;SDS011;54866;53.458;14.540;2022-08-25T10:19:50;6.00;;;4.30;;
68076;SDS011;54866;53.458;14.540;2022-08-25T10:22:22;7.60;;;4.40;;
68076;SDS011;54866;53.458;14.540;2022-08-25T10:24:57;5.00;;;4.20;;
68076;SDS011;54866;53.458;14.540;2022-08-25T10:27:29;5.10;;;4.40;;
68076;SDS011;54866;53.458;14.540;2022-08-25T10:30:16;6.80;;;4.60;;
68076;SDS011;54866;53.458;14.540;2022-08-25T10:32:56;6.10;;;4.20;;
68076;SDS011;54866;53.458;14.540;2022-08-25T10:35:38;7.60;;;4.50;;
68076;SDS011;54866;53.458;14.540;2022-08-25T10:38:20;5.30;;;3.90;;
68076;SDS011;54866;53.458;14.540;2022-08-25T10:41:00;6.10;;;3.90;;
68076;SDS011;54866;53.458;14.540;2022-08-25T10:43:38;7.90;;;4.30;;
68076;SDS011;54866;53.458;14.540;2022-08-25T10:46:19;9.70;;;4.50;;
68076;SDS011;54866;53.458;14.540;2022-08-25T10:48:59;7.80;;;4.20;;
68076;SDS011;54866;53.458;14.540;2022-08-25T10:51:38;6.20;;;3.90;;
68076;SDS011;54866;53.458;14.540;2022-08-25T10:54:18;6.70;;;4.10;;
68076;SDS011;54866;53.458;14.540;2022-08-25T10:56:59;7.00;;;4.40;;
68076;SDS011;54866;53.458;14.540;2022-08-25T10:59:53;8.90;;;4.70;;
68076;SDS011;54866;53.458;14.540;2022-08-25T11:05:39;7.00;;;4.50;;
68076;SDS011;54866;53.458;14.540;2022-08-25T11:08:13;6.90;;;3.70;;
68076;SDS011;54866;53.458;14.540;2022-08-25T11:10:48;6.70;;;4.70;;
68076;SDS011;54866;53.458;14.540;2022-08-25T11:13:26;6.90;;;4.10;;
68076;SDS011;54866;53.458;14.540;2022-08-25T11:16:08;8.80;;;4.40;;
68076;SDS011;54866;53.458;14.540;2022-08-25T11:18:44;5.10;;;3.00;;
68076;SDS011;54866;53.458;14.540;2022-08-25T11:21:18;7.60;;;4.20;;
68076;SDS011;54866;53.458;14.540;2022-08-25T11:23:54;6.70;;;4.10;;
68076;SDS011;54866;53.458;14.540;2022-08-25T11:26:31;6.20;;;3.70;;
68076;SDS011;54866;53.458;14.540;2022-08-25T11:29:08;7.10;;;3.80;;
68076;SDS011;54866;53.458;14.540;2022-08-25T11:31:44;6.20;;;4.30;;
68076;SDS011;54866;53.458;14.540;2022-08-25T11:34:16;7.20;;;3.80;;
68076;SDS011;54866;53.458;14.540;2022-08-25T11:36:49;5.80;;;3.50;;
68076;SDS011;54866;53.458;14.540;2022-08-25T11:39:30;6.20;;;3.90;;
68076;SDS011;54866;53.458;14.540;2022-08-25T11:42:15;9.00;;;4.40;;
68076;SDS011;54866;53.458;14.540;2022-08-25T11:45:04;5.40;;;3.80;;
68076;SDS011;54866;53.458;14.540;2022-08-25T11:47:46;5.60;;;3.70;;
68076;SDS011;54866;53.458;14.540;2022-08-25T11:50:29;6.10;;;3.80;;
68076;SDS011;54866;53.458;14.540;2022-08-25T11:53:23;7.00;;;3.60;;
68076;SDS011;54866;53.458;14.540;2022-08-25T11:55:55;5.50;;;3.90;;
68076;SDS011;54866;53.458;14.540;2022-08-25T12:04:31;7.00;;;3.50;;
68076;SDS011;54866;53.458;14.540;2022-08-25T12:07:19;7.80;;;3.90;;
68076;SDS011;54866;53.458;14.540;2022-08-25T12:13:00;8.80;;;4.20;;
68076;SDS011;54866;53.458;14.540;2022-08-25T12:15:59;9.10;;;3.90;;
68076;SDS011;54866;53.458;14.540;2022-08-25T12:18:43;8.30;;;3.80;;
68076;SDS011;54866;53.458;14.540;2022-08-25T12:21:18;6.00;;;3.70;;
68076;SDS011;54866;53.458;14.540;2022-08-25T12:26:53;7.70;;;4.00;;
68076;SDS011;54866;53.458;14.540;2022-08-25T12:29:28;7.80;;;3.80;;
68076;SDS011;54866;53.458;14.540;2022-08-25T12:32:16;7.30;;;3.70;;
68076;SDS011;54866;53.458;14.540;2022-08-25T12:35:20;9.10;;;5.50;;
68076;SDS011;54866;53.458;14.540;2022-08-25T12:38:02;6.30;;;3.80;;
68076;SDS011;54866;53.458;14.540;2022-08-25T12:40:37;8.60;;;4.20;;
68076;SDS011;54866;53.458;14.540;2022-08-25T12:43:25;5.70;;;3.60;;
68076;SDS011;54866;53.458;14.540;2022-08-25T12:48:57;7.30;;;4.20;;
68076;SDS011;54866;53.458;14.540;2022-08-25T12:51:45;5.90;;;4.10;;
68076;SDS011;54866;53.458;14.540;2022-08-25T12:54:21;7.60;;;4.40;;
68076;SDS011;54866;53.458;14.540;2022-08-25T12:56:59;9.00;;;3.70;;
68076;SDS011;54866;53.458;14.540;2022-08-25T12:59:34;5.90;;;4.10;;
68076;SDS011;54866;53.458;14.540;2022-08-25T13:02:25;7.40;;;3.80;;
68076;SDS011;54866;53.458;14.540;2022-08-25T13:05:19;7.30;;;4.10;;
68076;SDS011;54866;53.458;14.540;2022-08-25T13:11:23;6.20;;;3.40;;
68076;SDS011;54866;53.458;14.540;2022-08-25T13:14:04;4.50;;;3.80;;
68076;SDS011;54866;53.458;14.540;2022-08-25T13:16:50;10.60;;;5.00;;
68076;SDS011;54866;53.458;14.540;2022-08-25T13:19:21;5.60;;;4.00;;
68076;SDS011;54866;53.458;14.540;2022-08-25T13:21:53;7.00;;;3.80;;
68076;SDS011;54866;53.458;14.540;2022-08-25T13:24:25;7.20;;;3.50;;
68076;SDS011;54866;53.458;14.540;2022-08-25T13:26:58;9.10;;;4.20;;
68076;SDS011;54866;53.458;14.540;2022-08-25T13:29:30;8.20;;;3.90;;
68076;SDS011;54866;53.458;14.540;2022-08-25T13:32:02;7.70;;;4.40;;
68076;SDS011;54866;53.458;14.540;2022-08-25T13:34:35;8.30;;;3.80;;
68076;SDS011;54866;53.458;14.540;2022-08-25T13:37:09;7.20;;;4.60;;
68076;SDS011;54866;53.458;14.540;2022-08-25T13:40:08;8.00;;;4.00;;
68076;SDS011;54866;53.458;14.540;2022-08-25T13:42:42;6.90;;;3.70;;
68076;SDS011;54866;53.458;14.540;2022-08-25T13:45:15;6.60;;;4.20;;
68076;SDS011;54866;53.458;14.540;2022-08-25T13:47:47;6.60;;;4.30;;
68076;SDS011;54866;53.458;14.540;2022-08-25T13:50:27;6.10;;;3.90;;
68076;SDS011;54866;53.458;14.540;2022-08-25T13:55:32;6.40;;;4.20;;
68076;SDS011;54866;53.458;14.540;2022-08-25T13:58:04;8.90;;;4.30;;
68076;SDS011;54866;53.458;14.540;2022-08-25T14:00:42;6.00;;;3.30;;
68076;SDS011;54866;53.458;14.540;2022-08-25T14:06:05;7.20;;;3.80;;
68076;SDS011;54866;53.458;14.540;2022-08-25T14:08:37;6.80;;;3.80;;
68076;SDS011;54866;53.458;14.540;2022-08-25T14:11:10;7.80;;;4.50;;
68076;SDS011;54866;53.458;14.540;2022-08-25T14:13:43;9.60;;;6.00;;
68076;SDS011;54866;53.458;14.540;2022-08-25T14:16:14;6.20;;;3.50;;
68076;SDS011;54866;53.458;14.540;2022-08-25T14:18:49;7.30;;;4.10;;
68076;SDS011;54866;53.458;14.540;2022-08-25T14:21:21;6.00;;;3.60;;
68076;SDS011;54866;53.458;14.540;2022-08-25T14:23:54;6.90;;;4.00;;
68076;SDS011;54866;53.458;14.540;2022-08-25T14:26:25;7.60;;;3.90;;
68076;SDS011;54866;53.458;14.540;2022-08-25T14:28:55;6.90;;;4.50;;
68076;SDS011;54866;53.458;14.540;2022-08-25T14:31:25;7.20;;;4.00;;
68076;SDS011;54866;53.458;14.540;2022-08-25T14:33:58;6.40;;;3.80;;
68076;SDS011;54866;53.458;14.540;2022-08-25T14:36:30;6.60;;;4.10;;
68076;SDS011;54866;53.458;14.540;2022-08-25T14:39:02;8.60;;;5.70;;
68076;SDS011;54866;53.458;14.540;2022-08-25T14:41:33;7.40;;;5.50;;
68076;SDS011;54866;53.458;14.540;2022-08-25T14:44:04;5.90;;;4.40;;
68076;SDS011;54866;53.458;14.540;2022-08-25T14:46:35;8.60;;;4.30;;
68076;SDS011;54866;53.458;14.540;2022-08-25T14:49:09;5.70;;;4.20;;
68076;SDS011;54866;53.458;14.540;2022-08-25T14:51:44;6.30;;;4.20;;
68076;SDS011;54866;53.458;14.540;2022-08-25T14:54:14;5.30;;;3.70;;
68076;SDS011;54866;53.458;14.540;2022-08-25T14:56:45;11.90;;;5.70;;
68076;SDS011;54866;53.458;14.540;2022-08-25T14:59:15;5.50;;;3.90;;
68076;SDS011;54866;53.458;14.540;2022-08-25T15:01:45;13.50;;;3.80;;
68076;SDS011;54866;53.458;14.540;2022-08-25T15:04:16;7.70;;;3.80;;
68076;SDS011;54866;53.458;14.540;2022-08-25T15:06:50;6.20;;;4.50;;
68076;SDS011;54866;53.458;14.540;2022-08-25T15:09:23;6.30;;;4.50;;
68076;SDS011;54866;53.458;14.540;2022-08-25T15:11:54;6.60;;;3.70;;
68076;SDS011;54866;53.458;14.540;2022-08-25T15:14:25;5.20;;;3.90;;
68076;SDS011;54866;53.458;14.540;2022-08-25T15:16:55;7.50;;;4.20;;
68076;SDS011;54866;53.458;14.540;2022-08-25T15:19:25;8.50;;;4.10;;
68076;SDS011;54866;53.458;14.540;2022-08-25T15:21:55;6.80;;;4.00;;
68076;SDS011;54866;53.458;14.540;2022-08-25T15:24:25;6.90;;;4.40;;
68076;SDS011;54866;53.458;14.540;2022-08-25T15:26:56;8.50;;;4.20;;
68076;SDS011;54866;53.458;14.540;2022-08-25T15:31:57;10.00;;;4.60;;
68076;SDS011;54866;53.458;14.540;2022-08-25T15:34:28;5.80;;;4.00;;
68076;SDS011;54866;53.458;14.540;2022-08-25T15:36:58;7.90;;;4.30;;